Time;durP1;ratioP1;P1;durP2;ratioP2;P2;SDS_P1;SDS_P2;PMS_P1;PMS_P2;Temp;Humidity;BMP_temperature;BMP_pressure;BME280_temperature;BME280_humidity;BME280_pressure;Samples;Min_cycle;Max_cycle;Signal;HPM_P1;HPM_P2
2021/06/03 00:00:15;;;;;;;13.95;6.80;;;;;;;15.06;66.91;100890.94;5053426;28;20045;-70
2021/06/03 00:02:43;;;;;;;11.57;6.13;;;;;;;15.00;66.97;100891.38;5052698;28;20479;-69
2021/06/03 00:05:11;;;;;;;9.68;6.05;;;;;;;14.74;67.36;100890.44;5053122;28;20053;-70
2021/06/03 00:07:39;;;;;;;14.32;6.53;;;;;;;14.79;67.46;100889.19;5051435;28;20059;-70
2021/06/03 00:10:10;;;;;;;10.02;5.78;;;;;;;14.92;67.02;100893.72;5053310;28;20045;-70
2021/06/03 00:12:38;;;;;;;10.02;5.70;;;;;;;14.85;67.76;100899.47;5051972;28;20441;-70
2021/06/03 00:15:11;;;;;;;13.48;6.47;;;;;;;14.76;67.76;100900.09;5052981;28;20044;-71
2021/06/03 00:17:38;;;;;;;9.75;5.47;;;;;;;14.58;67.76;100904.03;5052712;28;20045;-71
2021/06/03 00:20:08;;;;;;;9.82;5.78;;;;;;;14.50;67.62;100906.38;5053009;28;20490;-69
2021/06/03 00:22:36;;;;;;;9.02;5.63;;;;;;;14.50;67.11;100909.06;5052846;28;20135;-71
2021/06/03 00:25:05;;;;;;;10.50;5.95;;;;;;;14.51;67.19;100916.16;5052765;28;20045;-70
2021/06/03 00:27:33;;;;;;;9.45;6.15;;;;;;;14.39;67.74;100911.56;5052742;28;20045;-70
2021/06/03 00:30:01;;;;;;;8.63;5.70;;;;;;;14.22;67.74;100913.50;5052834;28;20045;-70
2021/06/03 00:32:30;;;;;;;10.57;5.40;;;;;;;14.13;68.11;100903.38;5052486;28;20118;-76
2021/06/03 00:34:58;;;;;;;9.45;5.97;;;;;;;14.02;68.89;100914.78;5052920;28;20107;-70
2021/06/03 00:37:26;;;;;;;7.82;5.57;;;;;;;14.07;68.41;100908.25;5052814;28;20044;-70
2021/06/03 00:39:54;;;;;;;8.60;5.60;;;;;;;13.97;68.66;100908.00;5052816;28;20467;-70
2021/06/03 00:42:24;;;;;;;10.15;6.10;;;;;;;13.93;69.18;100909.16;5052581;28;20045;-70
2021/06/03 00:44:51;;;;;;;10.50;6.20;;;;;;;14.03;68.32;100915.66;5052049;28;20060;-70
2021/06/03 00:47:19;;;;;;;8.15;5.93;;;;;;;13.93;68.75;100922.56;5052618;28;20045;-70
2021/06/03 00:49:49;;;;;;;10.00;5.85;;;;;;;13.91;68.74;100911.09;5052278;28;20052;-71
2021/06/03 00:52:20;;;;;;;11.82;5.68;;;;;;;13.83;68.86;100918.75;5052668;28;20045;-70
2021/06/03 00:54:47;;;;;;;7.72;5.65;;;;;;;13.73;69.37;100910.41;5052195;28;20076;-70
2021/06/03 00:57:18;;;;;;;11.10;5.82;;;;;;;13.76;69.16;100918.25;5052653;28;20049;-70
2021/06/03 00:59:45;;;;;;;8.30;5.60;;;;;;;13.69;69.48;100915.09;5052092;28;20053;-70
2021/06/03 01:02:13;;;;;;;9.02;6.00;;;;;;;13.71;69.31;100921.25;5052407;28;20041;-70
2021/06/03 01:04:40;;;;;;;11.20;6.07;;;;;;;13.70;69.70;100924.88;5051951;28;20064;-70
2021/06/03 01:07:10;;;;;;;11.73;5.95;;;;;;;13.60;70.03;100923.72;5052576;28;20048;-69
2021/06/03 01:09:43;;;;;;;10.02;5.50;;;;;;;13.59;70.41;100926.50;5052032;28;20060;-71
2021/06/03 01:12:19;;;;;;;9.38;5.72;;;;;;;13.44;71.09;100923.81;5052486;28;20075;-70
2021/06/03 01:14:52;;;;;;;8.68;5.60;;;;;;;13.40;71.43;100932.97;5052117;28;20056;-70
2021/06/03 01:17:21;;;;;;;10.73;5.88;;;;;;;13.54;71.15;100932.16;5052531;28;20041;-71
2021/06/03 01:19:53;;;;;;;7.95;5.63;;;;;;;13.66;69.99;100928.69;5052168;28;20045;-71
2021/06/03 01:22:33;;;;;;;9.63;5.50;;;;;;;13.51;70.39;100929.66;5052768;28;20478;-70
2021/06/03 01:25:06;;;;;;;8.05;5.38;;;;;;;13.50;70.72;100927.91;5055946;28;20440;-70
2021/06/03 01:27:35;;;;;;;9.55;6.07;;;;;;;13.47;70.38;100930.78;5055451;28;20083;-70
2021/06/03 01:30:10;;;;;;;9.88;5.18;;;;;;;13.47;70.79;100936.16;5054899;28;20052;-70
2021/06/03 01:32:40;;;;;;;8.55;5.18;;;;;;;13.52;70.19;100930.53;5055544;28;20474;-70
2021/06/03 01:35:17;;;;;;;10.82;5.90;;;;;;;13.46;70.86;100931.75;5055685;28;20513;-70
2021/06/03 01:37:47;;;;;;;10.02;5.88;;;;;;;13.45;70.84;100924.66;5055467;28;20061;-70
2021/06/03 01:40:18;;;;;;;10.43;5.95;;;;;;;13.28;71.53;100925.69;5055868;28;20128;-70
2021/06/03 01:42:47;;;;;;;9.35;5.20;;;;;;;13.24;71.65;100926.00;5055505;28;20094;-70
2021/06/03 01:45:16;;;;;;;7.35;5.30;;;;;;;13.25;71.78;100928.56;5055775;28;20371;-70
2021/06/03 01:47:45;;;;;;;8.88;5.68;;;;;;;13.25;71.61;100927.72;5055397;28;20497;-70
2021/06/03 01:50:15;;;;;;;9.18;5.68;;;;;;;13.30;71.66;100928.28;5055574;28;20033;-70
2021/06/03 01:52:43;;;;;;;10.43;5.28;;;;;;;13.33;71.57;100928.13;5055197;28;20033;-71
2021/06/03 01:55:13;;;;;;;11.48;6.07;;;;;;;13.35;71.63;100928.88;5055527;28;20045;-70
2021/06/03 01:57:44;;;;;;;8.52;5.93;;;;;;;13.21;72.26;100936.88;5055124;28;20083;-70
2021/06/03 02:00:15;;;;;;;11.18;6.13;;;;;;;13.23;72.50;100934.97;5055343;28;20037;-70
2021/06/03 02:02:43;;;;;;;8.75;5.50;;;;;;;13.33;72.13;100942.38;5054945;28;20044;-70
2021/06/03 02:05:12;;;;;;;9.45;6.03;;;;;;;13.18;72.99;100944.09;5055057;28;20145;-70
2021/06/03 02:07:40;;;;;;;9.02;5.78;;;;;;;13.14;73.59;100933.69;5054788;28;20037;-70
2021/06/03 02:10:12;;;;;;;10.45;6.20;;;;;;;13.12;73.73;100935.56;5055334;28;20053;-70
2021/06/03 02:12:47;;;;;;;11.93;5.63;;;;;;;13.09;74.33;100939.31;5054855;28;20033;-71
2021/06/03 02:15:15;;;;;;;9.43;5.70;;;;;;;13.14;73.89;100939.03;5055172;28;20052;-70
2021/06/03 02:17:47;;;;;;;9.93;6.30;;;;;;;13.33;73.54;100941.50;5054546;28;20470;-71
2021/06/03 02:20:17;;;;;;;10.70;6.03;;;;;;;13.41;72.86;100947.22;5054804;28;20095;-70
2021/06/03 02:22:50;;;;;;;10.23;5.97;;;;;;;13.33;73.35;100946.88;5059242;28;20092;-71
2021/06/03 02:25:19;;;;;;;12.00;6.65;;;;;;;13.47;73.00;100949.56;5058022;28;20390;-70
2021/06/03 02:27:48;;;;;;;12.52;6.68;;;;;;;13.24;74.14;100947.41;5055417;28;20056;-71
2021/06/03 02:30:18;;;;;;;10.48;6.20;;;;;;;13.29;73.83;100945.31;5055360;28;20041;-71
2021/06/03 02:32:47;;;;;;;11.00;6.60;;;;;;;13.22;74.03;100947.50;5054733;28;20049;-71
2021/06/03 02:35:15;;;;;;;12.43;6.57;;;;;;;13.23;74.06;100946.56;5053949;28;20068;-72
2021/06/03 02:37:45;;;;;;;9.98;5.60;;;;;;;13.04;75.06;100952.13;5054378;28;20037;-71
2021/06/03 02:40:18;;;;;;;10.30;7.30;;;;;;;13.10;74.91;100946.38;5054472;28;20425;-71
2021/06/03 02:42:50;;;;;;;17.90;14.07;;;;;;;13.10;74.54;100954.41;5054510;28;20127;-71
2021/06/03 02:45:22;;;;;;;21.10;15.70;;;;;;;13.20;74.07;100953.91;5054590;28;20107;-71
2021/06/03 02:47:51;;;;;;;19.55;14.82;;;;;;;12.98;75.20;100960.50;5054325;28;20049;-70
2021/06/03 02:50:24;;;;;;;14.10;11.02;;;;;;;12.89;75.42;100963.72;5054156;28;20079;-69
2021/06/03 02:52:54;;;;;;;14.85;11.18;;;;;;;12.96;75.39;100957.06;5054126;28;20120;-70
2021/06/03 02:55:23;;;;;;;15.63;11.10;;;;;;;13.00;75.24;100961.25;5054455;28;20037;-71
2021/06/03 02:57:53;;;;;;;14.15;9.93;;;;;;;13.03;75.03;100969.16;5054088;28;20044;-71
2021/06/03 03:00:25;;;;;;;10.88;9.32;;;;;;;12.79;76.23;100974.09;5054320;28;20037;-70
2021/06/03 03:02:58;;;;;;;12.13;7.40;;;;;;;12.99;75.09;100964.91;5053867;28;20048;-71
2021/06/03 03:05:27;;;;;;;12.48;6.90;;;;;;;12.99;75.14;100980.97;5053925;28;20502;-71
2021/06/03 03:07:55;;;;;;;13.88;7.40;;;;;;;12.96;75.49;100974.94;5053756;28;20095;-71
2021/06/03 03:10:26;;;;;;;10.57;6.80;;;;;;;12.97;75.49;100974.84;5054045;28;20045;-71
2021/06/03 03:12:56;;;;;;;8.32;5.88;;;;;;;13.07;75.33;100973.34;5053558;28;20095;-71
2021/06/03 03:15:26;;;;;;;9.98;6.15;;;;;;;13.00;75.89;100982.69;5053741;28;20045;-73
2021/06/03 03:17:54;;;;;;;12.90;6.15;;;;;;;13.02;75.63;100985.28;5053259;28;20040;-71
2021/06/03 03:20:25;;;;;;;8.68;6.05;;;;;;;13.01;75.74;100989.78;5054055;28;20045;-72
2021/06/03 03:22:54;;;;;;;10.43;6.18;;;;;;;13.05;75.54;100991.34;5052561;28;20053;-71
2021/06/03 03:25:24;;;;;;;11.85;6.68;;;;;;;13.09;75.35;100992.88;5053934;28;20043;-71
2021/06/03 03:27:52;;;;;;;10.65;6.80;;;;;;;12.91;76.20;100999.28;5053255;28;20563;-72
2021/06/03 03:30:26;;;;;;;8.80;6.03;;;;;;;13.16;74.84;100996.91;5053470;28;20111;-70
2021/06/03 03:32:54;;;;;;;9.13;6.43;;;;;;;13.28;74.36;100997.16;5053407;28;20067;-72
2021/06/03 03:35:23;;;;;;;10.30;6.05;;;;;;;13.35;74.50;100995.84;5053656;28;20041;-71
2021/06/03 03:37:52;;;;;;;9.68;6.03;;;;;;;13.43;74.30;100997.13;5053013;28;20049;-71
2021/06/03 03:40:22;;;;;;;11.25;6.53;;;;;;;13.43;74.31;100998.94;5053624;28;20048;-71
2021/06/03 03:42:53;;;;;;;15.20;6.60;;;;;;;13.57;73.38;100992.75;5053011;28;20505;-71
2021/06/03 03:45:24;;;;;;;11.85;6.30;;;;;;;13.37;73.74;101007.34;5053059;28;20406;-70
2021/06/03 03:47:52;;;;;;;10.40;6.22;;;;;;;13.60;72.96;101001.44;5052924;28;20045;-70
2021/06/03 03:50:22;;;;;;;10.00;5.90;;;;;;;13.74;71.76;101001.47;5053223;28;20037;-71
2021/06/03 03:52:50;;;;;;;10.15;5.82;;;;;;;13.81;71.26;101001.09;5052829;28;20123;-70
2021/06/03 03:55:19;;;;;;;8.68;6.28;;;;;;;13.82;71.31;101006.38;5053172;28;20414;-70
2021/06/03 03:57:48;;;;;;;10.00;5.72;;;;;;;15.42;65.37;100989.66;5053012;28;20045;-69
2021/06/03 04:00:19;;;;;;;11.60;6.03;;;;;;;16.09;62.63;100994.88;5052583;28;20390;-67
2021/06/03 04:02:48;;;;;;;8.30;5.65;;;;;;;16.42;60.37;100995.16;5053406;28;20037;-69
2021/06/03 04:05:17;;;;;;;9.00;5.72;;;;;;;16.20;62.33;100995.81;5053096;28;20045;-70
2021/06/03 04:07:46;;;;;;;8.18;5.13;;;;;;;18.08;56.07;100992.38;5059224;28;20053;-69
2021/06/03 04:10:16;;;;;;;7.88;4.80;;;;;;;19.26;51.84;100985.38;5052611;28;20040;-70
2021/06/03 04:12:46;;;;;;;9.45;5.15;;;;;;;19.83;50.06;100979.53;5052094;28;20049;-69
2021/06/03 04:15:14;;;;;;;8.85;4.95;;;;;;;19.66;50.06;100986.41;5052569;28;20041;-70
2021/06/03 04:17:43;;;;;;;9.55;5.13;;;;;;;20.14;48.51;100991.22;5051500;28;20049;-68
2021/06/03 04:20:16;;;;;;;9.93;5.15;;;;;;;20.31;48.16;100989.72;5052473;28;20041;-70
2021/06/03 04:22:44;;;;;;;9.13;5.18;;;;;;;19.66;49.21;100988.25;5052927;28;20041;-72
2021/06/03 04:25:12;;;;;;;9.27;4.20;;;;;;;18.36;52.21;100996.41;5052702;28;20510;-73
2021/06/03 04:27:41;;;;;;;9.05;5.15;;;;;;;18.14;53.55;101002.66;5052821;28;20444;-74
2021/06/03 04:30:12;;;;;;;7.25;4.75;;;;;;;19.50;50.30;100995.97;5052313;28;20045;-73
2021/06/03 04:32:40;;;;;;;7.30;4.45;;;;;;;20.45;46.89;101002.91;5052714;28;20044;-72
2021/06/03 04:35:09;;;;;;;8.95;4.60;;;;;;;20.38;47.40;101000.88;5052377;28;20045;-73
2021/06/03 04:37:38;;;;;;;7.55;4.45;;;;;;;21.00;46.27;101002.47;5052924;28;20087;-73
2021/06/03 04:40:07;;;;;;;7.35;4.80;;;;;;;20.91;46.00;101003.31;5052471;28;20390;-73
2021/06/03 04:42:35;;;;;;;8.05;4.20;;;;;;;21.51;44.60;100990.47;5052107;28;20140;-74
2021/06/03 04:45:04;;;;;;;8.18;5.00;;;;;;;21.17;45.95;100998.19;5052691;28;20081;-75
2021/06/03 04:47:39;;;;;;;9.23;4.90;;;;;;;21.44;45.30;101001.09;5052648;28;20076;-73
2021/06/03 04:50:08;;;;;;;8.05;4.95;;;;;;;21.49;44.35;100993.34;5052593;28;20099;-74
2021/06/03 04:52:36;;;;;;;10.18;4.32;;;;;;;22.44;42.30;100995.09;5052721;28;20052;-74
2021/06/03 04:55:11;;;;;;;7.63;4.30;;;;;;;21.32;43.29;101003.06;5052309;28;20063;-73
2021/06/03 04:57:40;;;;;;;7.07;4.22;;;;;;;22.64;41.24;100985.81;5053389;28;20057;-72
2021/06/03 05:00:12;;;;;;;9.85;4.57;;;;;;;23.23;39.74;100987.13;5055037;28;20130;-73
2021/06/03 05:02:40;;;;;;;8.80;4.30;;;;;;;22.74;40.87;100986.59;5056582;28;20045;-78
2021/06/03 05:05:10;;;;;;;8.88;4.45;;;;;;;22.32;41.63;100996.28;5055835;28;20041;-73
2021/06/03 05:07:38;;;;;;;7.03;4.28;;;;;;;22.56;40.28;100993.88;5056561;28;20453;-69
2021/06/03 05:10:09;;;;;;;9.18;4.53;;;;;;;22.24;41.02;100988.88;5055760;28;20057;-71
2021/06/03 05:12:37;;;;;;;8.00;4.15;;;;;;;23.56;37.88;100981.97;5056108;28;20052;-71
2021/06/03 05:15:08;;;;;;;7.75;3.75;;;;;;;23.48;38.47;100988.19;5056102;28;20072;-71
2021/06/03 05:17:37;;;;;;;10.32;4.10;;;;;;;23.02;38.27;100994.75;5056301;28;20433;-71
2021/06/03 05:20:09;;;;;;;8.10;4.32;;;;;;;22.77;39.63;100994.44;5055951;28;20057;-72
2021/06/03 05:22:37;;;;;;;7.82;4.20;;;;;;;23.62;37.31;100989.50;5056217;28;20041;-72
2021/06/03 05:25:08;;;;;;;7.32;4.10;;;;;;;23.73;36.93;100989.25;5055602;28;20402;-73
2021/06/03 05:27:40;;;;;;;9.57;4.43;;;;;;;24.46;36.00;100992.41;5056243;28;20049;-73
2021/06/03 05:30:10;;;;;;;7.80;3.97;;;;;;;25.46;33.96;100990.56;5055767;28;20041;-73
2021/06/03 05:32:41;;;;;;;7.03;4.07;;;;;;;25.64;34.04;100999.44;5056018;28;20045;-72
2021/06/03 05:35:12;;;;;;;8.70;4.05;;;;;;;26.17;32.51;100995.28;5055904;28;20399;-72
2021/06/03 05:37:41;;;;;;;11.30;3.97;;;;;;;25.61;33.33;101008.00;5054540;28;20045;-73
2021/06/03 05:40:14;;;;;;;8.40;3.88;;;;;;;26.00;31.57;101004.56;5056574;28;20049;-70
2021/06/03 05:42:42;;;;;;;9.35;4.50;;;;;;;26.04;32.00;101000.44;5055720;28;20128;-70
2021/06/03 05:45:12;;;;;;;7.70;4.03;;;;;;;25.73;32.38;101005.78;5055347;28;20057;-71
2021/06/03 05:47:40;;;;;;;7.75;4.00;;;;;;;26.62;31.04;101007.44;5054533;28;20049;-69
2021/06/03 05:50:11;;;;;;;6.82;3.50;;;;;;;25.16;32.03;101022.13;5055303;28;20478;-71
2021/06/03 05:52:40;;;;;;;7.95;4.22;;;;;;;25.78;31.58;101016.22;5055735;28;20061;-71
2021/06/03 05:55:12;;;;;;;8.23;4.07;;;;;;;26.42;30.96;101019.81;5054063;28;20051;-72
2021/06/03 05:57:41;;;;;;;9.43;3.78;;;;;;;25.54;32.26;101027.97;5055762;28;20049;-71
2021/06/03 06:00:11;;;;;;;8.63;4.00;;;;;;;26.23;31.31;101018.31;5054930;28;20068;-72
2021/06/03 06:02:48;;;;;;;9.82;4.25;;;;;;;26.69;30.77;101022.09;5055377;28;20474;-72
2021/06/03 06:08:04;;;;;;;7.97;3.63;;;;;;;26.80;29.06;101018.97;5055134;28;20517;-72
2021/06/03 06:10:34;;;;;;;8.10;3.05;;;;;;;26.99;28.75;101023.13;5053725;28;20041;-71
2021/06/03 06:13:03;;;;;;;8.32;3.40;;;;;;;27.80;27.82;101016.25;5054939;28;20098;-70
2021/06/03 06:15:32;;;;;;;8.18;3.72;;;;;;;27.11;28.93;101020.84;5055167;28;20068;-70
2021/06/03 06:18:03;;;;;;;9.68;4.05;;;;;;;27.23;29.24;101030.38;5055000;28;20052;-75
2021/06/03 06:20:31;;;;;;;8.30;3.38;;;;;;;27.28;29.40;101022.47;5054917;28;20045;-72
2021/06/03 06:22:59;;;;;;;8.70;3.50;;;;;;;28.15;26.50;101025.63;5054884;28;20103;-72
2021/06/03 06:25:28;;;;;;;7.43;3.22;;;;;;;28.22;26.42;101023.00;5054483;28;20044;-69
2021/06/03 06:27:58;;;;;;;10.82;3.72;;;;;;;27.90;27.25;101022.31;5054331;28;20048;-70
2021/06/03 06:30:27;;;;;;;8.57;3.70;;;;;;;28.02;27.69;101024.59;5054305;28;20052;-69
2021/06/03 06:32:58;;;;;;;8.25;3.53;;;;;;;27.52;28.10;101026.06;5054540;28;20040;-70
2021/06/03 06:35:26;;;;;;;7.00;3.00;;;;;;;27.58;27.74;101022.56;5054259;28;20563;-69
2021/06/03 06:37:54;;;;;;;6.20;2.60;;;;;;;27.56;25.88;101020.00;5054715;28;20551;-70
2021/06/03 06:40:22;;;;;;;6.22;3.20;;;;;;;27.56;26.63;101019.16;5054396;28;20080;-69
2021/06/03 06:42:54;;;;;;;6.10;2.70;;;;;;;27.75;26.46;101018.69;5054747;28;20048;-69
2021/06/03 06:45:24;;;;;;;7.78;2.80;;;;;;;27.75;26.94;101021.41;5052723;28;20124;-69
2021/06/03 06:47:52;;;;;;;6.82;2.70;;;;;;;27.74;25.62;101025.19;5054428;28;20041;-68
2021/06/03 06:50:22;;;;;;;8.85;3.60;;;;;;;27.44;27.15;101023.38;5054027;28;20075;-71
2021/06/03 06:52:50;;;;;;;6.28;3.20;;;;;;;27.67;26.67;101027.81;5054166;28;20448;-70
2021/06/03 06:55:18;;;;;;;8.18;3.40;;;;;;;27.10;27.20;101030.13;5054248;28;20045;-70
2021/06/03 06:57:46;;;;;;;7.85;3.30;;;;;;;26.10;29.51;101038.00;5053103;28;20051;-69
2021/06/03 07:00:15;;;;;;;10.32;3.35;;;;;;;25.73;29.63;101032.25;5053734;28;20103;-70
2021/06/03 07:02:44;;;;;;;8.23;2.83;;;;;;;25.42;30.14;101038.38;5053998;28;20095;-70
2021/06/03 07:05:15;;;;;;;5.40;2.73;;;;;;;24.63;28.70;101044.31;5053693;28;20414;-70
2021/06/03 07:07:43;;;;;;;6.65;3.00;;;;;;;24.92;28.92;101035.72;5053873;28;20051;-69
2021/06/03 07:10:12;;;;;;;5.35;2.42;;;;;;;24.79;28.28;101036.16;5053920;28;20045;-70
2021/06/03 07:12:41;;;;;;;7.97;2.30;;;;;;;24.50;26.76;101033.84;5053903;28;20041;-70
2021/06/03 07:15:11;;;;;;;6.28;2.30;;;;;;;23.36;26.94;101036.59;5053682;28;20428;-70
2021/06/03 07:17:39;;;;;;;4.22;2.03;;;;;;;23.67;26.58;101028.03;5052515;28;20151;-70
2021/06/03 07:20:11;;;;;;;5.15;2.30;;;;;;;23.09;27.77;101036.66;5053223;28;20131;-71
2021/06/03 07:22:39;;;;;;;3.70;2.00;;;;;;;22.82;27.24;101043.81;5053903;28;20083;-69
2021/06/03 07:25:08;;;;;;;4.95;2.22;;;;;;;22.79;27.89;101038.69;5053381;28;20398;-70
2021/06/03 07:27:38;;;;;;;4.75;2.50;;;;;;;22.84;27.94;101035.53;5053543;28;20055;-70
2021/06/03 07:30:08;;;;;;;4.78;2.13;;;;;;;23.02;28.18;101036.41;5053296;28;20128;-77
2021/06/03 07:32:39;;;;;;;;;;;;;;;23.14;27.32;101037.03;5053885;28;20033;-70
2021/06/03 07:35:12;;;;;;;5.32;2.30;;;;;;;22.80;26.71;101040.41;5053469;28;19960;-72
2021/06/03 07:37:41;;;;;;;4.35;2.17;;;;;;;22.99;26.97;101044.03;5053268;28;20067;-70
2021/06/03 07:40:12;;;;;;;3.65;2.10;;;;;;;23.15;26.70;101038.75;5053063;28;20087;-71
2021/06/03 07:42:41;;;;;;;6.55;2.22;;;;;;;23.05;27.67;101035.25;5053260;28;20445;-69
2021/06/03 07:45:11;;;;;;;6.40;2.70;;;;;;;23.00;27.05;101043.03;5053045;28;20114;-68
2021/06/03 07:47:40;;;;;;;6.28;2.33;;;;;;;22.99;28.24;101038.59;5053375;28;20041;-70
2021/06/03 07:50:12;;;;;;;5.95;2.33;;;;;;;22.94;27.73;101040.91;5053148;28;20128;-69
2021/06/03 07:52:41;;;;;;;3.40;1.95;;;;;;;22.80;27.76;101043.09;5051924;28;20139;-70
2021/06/03 07:55:12;;;;;;;4.00;2.30;;;;;;;22.88;27.66;101047.84;5052846;28;20100;-69
2021/06/03 07:57:41;;;;;;;6.63;2.10;;;;;;;22.69;28.93;101043.31;5053320;28;20064;-69
2021/06/03 08:00:11;;;;;;;3.65;2.08;;;;;;;22.73;28.31;101039.28;5053076;28;20084;-71
2021/06/03 08:02:43;;;;;;;5.20;2.45;;;;;;;22.66;29.04;101032.72;5053444;28;20041;-70
2021/06/03 08:05:13;;;;;;;7.53;2.25;;;;;;;22.72;29.14;101043.00;5053082;28;20095;-71
2021/06/03 08:07:41;;;;;;;4.47;2.10;;;;;;;23.05;28.03;101043.41;5052860;28;20052;-70
2021/06/03 08:10:12;;;;;;;5.00;2.17;;;;;;;23.39;27.05;101040.88;5052871;28;20053;-70
2021/06/03 08:12:40;;;;;;;7.57;2.00;;;;;;;23.07;27.93;101049.56;5053204;28;20048;-70
2021/06/03 08:15:11;;;;;;;5.68;2.20;;;;;;;22.87;29.22;101045.22;5052810;28;20049;-70
2021/06/03 08:17:45;;;;;;;4.78;2.20;;;;;;;22.98;28.54;101042.31;5052833;28;20044;-70
2021/06/03 08:20:18;;;;;;;4.47;2.30;;;;;;;22.97;28.79;101041.47;5052452;28;20041;-70
2021/06/03 08:22:46;;;;;;;4.27;2.40;;;;;;;23.00;28.64;101046.59;5053065;28;20393;-70
2021/06/03 08:25:17;;;;;;;4.25;2.10;;;;;;;23.05;28.13;101037.97;5052848;28;20115;-70
2021/06/03 08:27:46;;;;;;;5.13;2.30;;;;;;;22.99;28.41;101050.34;5052905;28;20409;-70
2021/06/03 08:30:16;;;;;;;5.05;2.28;;;;;;;22.94;28.66;101041.75;5052772;28;20077;-70
2021/06/03 08:32:46;;;;;;;4.78;2.13;;;;;;;22.94;28.91;101046.34;5053939;28;20490;-69
2021/06/03 08:35:17;;;;;;;5.90;2.40;;;;;;;22.77;28.95;101046.13;5057293;28;20406;-71
2021/06/03 08:37:50;;;;;;;6.25;2.28;;;;;;;22.69;29.13;101040.59;5057210;28;20393;-70
2021/06/03 08:40:23;;;;;;;3.97;2.42;;;;;;;22.95;29.41;101045.34;5056776;28;20135;-70
2021/06/03 08:42:51;;;;;;;4.27;2.10;;;;;;;22.63;28.91;101037.63;5056863;28;20052;-70
2021/06/03 08:45:20;;;;;;;6.75;2.53;;;;;;;22.32;30.55;101037.06;5056741;28;20471;-69
2021/06/03 08:47:48;;;;;;;12.20;2.55;;;;;;;22.20;29.55;101037.25;5056699;28;20049;-70
2021/06/03 08:50:19;;;;;;;7.78;2.22;;;;;;;22.15;29.80;101046.84;5056624;28;20090;-71
2021/06/03 08:52:47;;;;;;;5.65;2.40;;;;;;;22.43;30.48;101036.88;5056921;28;20064;-70
2021/06/03 08:58:01;;;;;;;7.18;2.20;;;;;;;22.51;30.11;101029.69;5057042;28;20049;-70
2021/06/03 09:00:29;;;;;;;4.78;2.30;;;;;;;22.57;30.20;101039.94;5058166;28;20044;-70
2021/06/03 09:02:57;;;;;;;4.95;2.20;;;;;;;22.35;30.17;101025.88;5056691;28;20375;-70
2021/06/03 09:05:28;;;;;;;7.50;2.50;;;;;;;22.28;30.51;101034.63;5056521;28;20059;-70
2021/06/03 09:07:56;;;;;;;5.75;2.40;;;;;;;22.30;30.51;101030.94;5056421;28;20052;-71
2021/06/03 09:10:30;;;;;;;3.80;2.22;;;;;;;22.31;30.46;101022.63;5056541;28;20049;-70
2021/06/03 09:13:09;;;;;;;5.57;2.42;;;;;;;22.12;30.37;101028.97;5056661;28;20045;-70
2021/06/03 09:15:39;;;;;;;5.43;2.50;;;;;;;21.81;30.66;101030.16;5055785;28;20445;-70
2021/06/03 09:18:09;;;;;;;5.70;2.58;;;;;;;21.87;30.59;101029.56;5056243;28;20103;-70
2021/06/03 09:20:41;;;;;;;8.05;2.30;;;;;;;22.02;31.13;101027.25;5055671;28;20187;-70
2021/06/03 09:23:25;;;;;;;5.18;2.50;;;;;;;22.19;31.15;101030.06;5056242;28;20043;-70
2021/06/03 09:25:57;;;;;;;5.65;2.53;;;;;;;22.00;30.39;101021.94;5056086;28;20041;-70
2021/06/03 09:28:28;;;;;;;5.70;2.45;;;;;;;21.99;30.30;101033.81;5055788;28;20056;-69
2021/06/03 09:31:09;;;;;;;4.60;2.58;;;;;;;22.10;30.97;101024.69;5055665;28;20064;-69
2021/06/03 09:33:48;;;;;;;7.68;2.90;;;;;;;22.24;31.50;101022.34;5055875;28;20124;-70
2021/06/03 09:36:19;;;;;;;5.38;2.72;;;;;;;22.34;31.18;101029.59;5055447;28;20033;-71
2021/06/03 09:38:57;;;;;;;7.40;2.70;;;;;;;22.21;31.31;101028.09;5056334;28;20114;-70
2021/06/03 09:41:27;;;;;;;10.35;2.92;;;;;;;22.30;30.87;101030.94;5055262;28;20041;-70
2021/06/03 09:44:08;;;;;;;5.88;2.70;;;;;;;22.19;30.80;101035.50;5055213;28;20072;-70
2021/06/03 09:46:43;;;;;;;5.72;2.47;;;;;;;22.31;31.66;101028.06;5055396;28;20375;-70
2021/06/03 09:49:17;;;;;;;5.20;2.80;;;;;;;22.45;31.04;101023.97;5055638;28;20099;-70
2021/06/03 09:51:48;;;;;;;4.05;2.63;;;;;;;22.79;30.42;101026.94;5054806;28;20057;-70
2021/06/03 09:54:19;;;;;;;4.90;2.70;;;;;;;22.42;30.09;101024.28;5055654;28;20048;-70
2021/06/03 09:56:51;;;;;;;5.63;2.60;;;;;;;22.64;31.05;101023.88;5055940;28;20049;-69
2021/06/03 09:59:22;;;;;;;4.97;2.53;;;;;;;22.55;30.52;101020.19;5055367;28;20497;-70
2021/06/03 10:01:56;;;;;;;4.13;2.50;;;;;;;22.49;30.87;101019.97;5055534;28;20492;-70
2021/06/03 10:04:33;;;;;;;4.88;2.60;;;;;;;22.60;30.77;101019.75;5055131;28;20143;-70
2021/06/03 10:07:06;;;;;;;5.22;2.58;;;;;;;22.30;30.76;101011.91;5055548;28;20409;-69
2021/06/03 10:09:34;;;;;;;;;;;;;;;22.39;31.84;101017.28;5055369;28;20048;-70
2021/06/03 10:12:03;;;;;;;5.85;2.85;;;;;;;22.67;31.21;101020.00;5055235;28;19951;-69
2021/06/03 10:14:32;;;;;;;7.80;2.80;;;;;;;22.47;30.94;101017.38;5054762;28;20056;-70
2021/06/03 10:17:13;;;;;;;4.15;2.60;;;;;;;22.47;31.30;101021.94;5055457;28;20048;-69
2021/06/03 10:19:42;;;;;;;5.05;2.70;;;;;;;22.27;31.79;101010.31;5054792;28;20037;-69
2021/06/03 10:22:19;;;;;;;4.53;2.42;;;;;;;22.52;31.41;101001.47;5055283;28;20041;-69
2021/06/03 10:25:00;;;;;;;5.18;2.80;;;;;;;22.57;30.92;101015.47;5055035;28;20049;-69
2021/06/03 10:27:30;;;;;;;8.48;3.13;;;;;;;22.48;31.29;101007.34;5054841;28;20053;-68
2021/06/03 10:30:01;;;;;;;4.97;2.90;;;;;;;22.24;31.06;101010.63;5054893;28;20064;-69
2021/06/03 10:32:30;;;;;;;5.80;2.80;;;;;;;22.34;32.02;100995.13;5054757;28;20040;-69
2021/06/03 10:34:59;;;;;;;11.23;2.92;;;;;;;22.72;31.99;100993.22;5055162;28;20049;-70
2021/06/03 10:37:33;;;;;;;;;;;;;;;23.11;31.38;100993.81;5054960;28;20053;-70
2021/06/03 10:40:01;;;;;;;5.72;2.60;;;;;;;22.64;30.96;100991.25;5053573;28;20007;-70
2021/06/03 10:42:29;;;;;;;8.05;2.80;;;;;;;22.54;32.05;100985.88;5054362;28;20128;-70
2021/06/03 10:44:58;;;;;;;6.30;3.28;;;;;;;22.57;31.37;100990.13;5054399;28;20447;-70
2021/06/03 10:47:26;;;;;;;6.45;2.83;;;;;;;22.62;31.03;100990.53;5054458;28;20059;-70
2021/06/03 10:49:54;;;;;;;5.55;2.78;;;;;;;22.44;31.05;100997.81;5054663;28;20041;-71
2021/06/03 10:52:22;;;;;;;5.13;2.80;;;;;;;22.44;31.96;100981.50;5053946;28;20041;-71
2021/06/03 10:54:54;;;;;;;3.75;2.45;;;;;;;22.74;31.18;100977.59;5054083;28;20045;-70
2021/06/03 10:57:25;;;;;;;6.63;3.08;;;;;;;22.61;31.08;100991.56;5054116;28;20102;-70
2021/06/03 10:59:54;;;;;;;7.22;2.70;;;;;;;22.59;31.97;100992.72;5054357;28;20036;-70
2021/06/03 11:02:23;;;;;;;5.47;2.33;;;;;;;22.80;32.03;100991.44;5054351;28;20057;-70
2021/06/03 11:04:51;;;;;;;4.13;2.70;;;;;;;22.54;31.93;101001.31;5054011;28;20045;-70
2021/06/03 11:07:34;;;;;;;5.30;2.78;;;;;;;22.62;31.64;101004.13;5054222;28;20088;-70
2021/06/03 11:10:27;;;;;;;6.82;2.50;;;;;;;22.41;31.78;100989.97;5053836;28;20055;-70
2021/06/03 11:13:12;;;;;;;5.03;2.57;;;;;;;22.79;31.95;100995.16;5053999;28;20041;-70
2021/06/03 11:16:09;;;;;;;6.72;2.63;;;;;;;22.56;31.84;100994.72;5054102;28;20053;-70
2021/06/03 11:19:13;;;;;;;5.35;2.72;;;;;;;22.71;32.32;100992.34;5053643;28;20041;-69
2021/06/03 11:22:07;;;;;;;4.97;2.63;;;;;;;22.89;32.01;100986.13;5053478;28;20135;-70
2021/06/03 11:24:46;;;;;;;5.82;2.67;;;;;;;22.92;31.31;100983.09;5053253;28;20041;-70
2021/06/03 11:27:17;;;;;;;5.50;2.90;;;;;;;22.94;31.49;100978.34;5053553;28;20071;-70
2021/06/03 11:29:57;;;;;;;6.47;3.08;;;;;;;23.11;31.15;100972.03;5053540;28;20107;-70
2021/06/03 11:32:27;;;;;;;6.45;2.70;;;;;;;23.19;31.32;100968.56;5053760;28;20505;-71
2021/06/03 11:34:57;;;;;;;7.03;2.70;;;;;;;23.20;31.38;100971.13;5053863;28;20091;-70
2021/06/03 11:37:26;;;;;;;5.28;2.70;;;;;;;22.80;31.69;100961.53;5053300;28;20556;-70
2021/06/03 11:39:58;;;;;;;8.82;3.20;;;;;;;22.90;32.00;100957.91;5053598;28;20110;-70
2021/06/03 11:42:31;;;;;;;6.18;2.75;;;;;;;23.01;31.53;100972.13;5053192;28;20106;-70
2021/06/03 11:45:20;;;;;;;5.40;2.75;;;;;;;22.98;31.71;100966.16;5053151;28;20440;-70